createdAt,value
2023-03-31T00:00:14.311Z,13.32
2023-03-31T00:01:14.294Z,13.32
2023-03-31T00:02:14.279Z,13.31
2023-03-31T00:03:14.388Z,13.32
2023-03-31T00:04:14.523Z,13.32
2023-03-31T00:05:14.252Z,13.31
2023-03-31T00:06:14.247Z,13.32
2023-03-31T00:07:14.238Z,13.31
2023-03-31T00:08:14.243Z,13.32
2023-03-31T00:09:14.241Z,13.32
2023-03-31T00:10:17.800Z,13.32
2023-03-31T00:11:14.190Z,13.31
2023-03-31T00:12:14.162Z,13.35
2023-03-31T00:13:14.215Z,13.36
2023-03-31T00:14:14.175Z,13.35
2023-03-31T00:15:14.182Z,13.35
2023-03-31T00:16:14.161Z,13.36
2023-03-31T00:17:14.109Z,13.35
2023-03-31T00:18:14.108Z,13.35
2023-03-31T00:19:14.101Z,13.35
2023-03-31T00:20:14.122Z,13.36
2023-03-31T00:21:14.079Z,13.35
2023-03-31T00:22:14.071Z,13.35
2023-03-31T00:23:14.096Z,13.35
2023-03-31T00:24:14.037Z,13.35
2023-03-31T00:25:14.038Z,13.36
2023-03-31T00:26:14.019Z,13.35
2023-03-31T00:27:14.011Z,13.36
2023-03-31T00:28:14.003Z,13.36
2023-03-31T00:29:14.005Z,13.35
2023-03-31T00:30:14.016Z,13.35
2023-03-31T00:31:13.955Z,13.32
2023-03-31T00:32:13.982Z,13.32
2023-03-31T00:33:14.052Z,13.31
2023-03-31T00:34:13.930Z,13.31
2023-03-31T00:35:13.911Z,13.29
2023-03-31T00:36:14.172Z,13.31
2023-03-31T00:37:14.009Z,13.29
2023-03-31T00:38:13.959Z,13.32
2023-03-31T00:39:13.867Z,13.32
2023-03-31T00:40:13.895Z,13.35
2023-03-31T00:41:13.854Z,13.35
2023-03-31T00:42:13.841Z,13.35
2023-03-31T00:43:13.817Z,13.32
2023-03-31T00:44:13.846Z,13.35
2023-03-31T00:45:13.810Z,13.32
2023-03-31T00:46:13.995Z,13.32
2023-03-31T00:47:13.802Z,13.32
2023-03-31T00:48:13.827Z,13.29
2023-03-31T00:49:13.749Z,13.28
2023-03-31T00:50:13.754Z,13.28
2023-03-31T00:51:13.762Z,13.28
2023-03-31T00:52:13.755Z,13.28
2023-03-31T00:53:13.716Z,13.27
2023-03-31T00:54:13.713Z,13.27
2023-03-31T00:55:13.715Z,13.28
2023-03-31T00:56:13.678Z,13.28
2023-03-31T00:57:13.767Z,13.28
2023-03-31T00:58:13.677Z,13.28
2023-03-31T00:59:13.652Z,13.28
2023-03-31T01:00:13.641Z,13.28
2023-03-31T01:01:13.657Z,13.31
2023-03-31T01:02:13.616Z,13.31
2023-03-31T01:03:13.666Z,13.32
2023-03-31T01:04:13.601Z,13.36
2023-03-31T01:05:13.618Z,13.38
2023-03-31T01:06:13.594Z,13.38
2023-03-31T01:07:13.561Z,13.41
2023-03-31T01:08:13.570Z,13.39
2023-03-31T01:09:13.538Z,13.39
2023-03-31T01:10:13.782Z,13.41
2023-03-31T01:11:13.544Z,13.41
2023-03-31T01:12:13.520Z,13.41
2023-03-31T01:13:13.491Z,13.44
2023-03-31T01:14:13.508Z,13.47
2023-03-31T01:15:13.502Z,13.53
2023-03-31T01:16:13.464Z,13.53
2023-03-31T01:17:13.579Z,13.54
2023-03-31T01:18:13.555Z,13.53
2023-03-31T01:19:13.445Z,13.54
2023-03-31T01:20:13.422Z,13.54
2023-03-31T01:21:13.410Z,13.54
2023-03-31T01:22:13.416Z,13.55
2023-03-31T01:23:13.407Z,13.55
2023-03-31T01:24:13.404Z,13.55
2023-03-31T01:25:13.367Z,13.57
2023-03-31T01:26:13.383Z,13.57
2023-03-31T01:27:13.547Z,13.57
2023-03-31T01:28:13.357Z,13.54
2023-03-31T01:29:13.325Z,13.55
2023-03-31T01:30:13.320Z,13.57
2023-03-31T01:31:13.328Z,13.57
2023-03-31T01:32:13.298Z,13.55
2023-03-31T01:33:13.333Z,13.57
2023-03-31T01:34:13.326Z,13.59
2023-03-31T01:35:13.261Z,13.57
2023-03-31T01:36:13.299Z,13.55
2023-03-31T01:37:13.246Z,13.57
2023-03-31T01:38:13.233Z,13.55
2023-03-31T01:39:13.213Z,13.57
2023-03-31T01:40:13.220Z,13.57
2023-03-31T01:41:13.189Z,13.59
2023-03-31T01:42:34.191Z,13.57
2023-03-31T01:43:13.155Z,13.59
2023-03-31T01:44:13.150Z,13.57
2023-03-31T01:45:13.146Z,13.57
2023-03-31T01:46:13.158Z,13.55
2023-03-31T01:47:13.147Z,13.57
2023-03-31T01:48:13.124Z,13.55
2023-03-31T01:49:13.091Z,13.54
2023-03-31T01:50:13.086Z,13.54
2023-03-31T01:51:13.091Z,13.54
2023-03-31T01:52:13.127Z,13.54
2023-03-31T01:53:13.057Z,13.57
2023-03-31T01:54:13.050Z,13.61
2023-03-31T01:55:13.038Z,13.65
2023-03-31T01:56:13.038Z,13.69
2023-03-31T01:57:13.047Z,13.73
2023-03-31T01:58:12.995Z,13.81
2023-03-31T01:59:13.260Z,13.87
2023-03-31T02:00:13.025Z,13.90
2023-03-31T02:01:12.989Z,13.88
2023-03-31T02:02:13.042Z,13.90
2023-03-31T02:03:13.084Z,13.90
2023-03-31T02:04:12.942Z,13.88
2023-03-31T02:05:12.926Z,13.90
2023-03-31T02:06:12.912Z,13.90
2023-03-31T02:07:12.907Z,13.90
2023-03-31T02:08:12.877Z,13.88
2023-03-31T02:09:12.898Z,13.88
2023-03-31T02:10:12.868Z,13.87
2023-03-31T02:11:12.868Z,13.86
2023-03-31T02:12:12.857Z,13.84
2023-03-31T02:13:12.843Z,13.83
2023-03-31T02:14:12.830Z,13.81
2023-03-31T02:15:12.805Z,13.81
2023-03-31T02:16:12.829Z,13.79
2023-03-31T02:17:12.797Z,13.76
2023-03-31T02:18:12.784Z,13.75
2023-03-31T02:19:12.804Z,13.76
2023-03-31T02:20:12.752Z,13.73
2023-03-31T02:21:12.761Z,13.72
2023-03-31T02:22:12.725Z,13.71
2023-03-31T02:23:12.730Z,13.68
2023-03-31T02:24:12.706Z,13.66
2023-03-31T02:25:12.719Z,13.63
2023-03-31T02:26:12.717Z,13.61
2023-03-31T02:27:12.677Z,13.55
2023-03-31T02:28:12.682Z,13.51
2023-03-31T02:29:12.665Z,13.48
2023-03-31T02:30:12.657Z,13.46
2023-03-31T02:31:12.656Z,13.43
2023-03-31T02:32:12.623Z,13.41
2023-03-31T02:33:12.626Z,13.35
2023-03-31T02:34:12.626Z,13.31
2023-03-31T02:35:12.592Z,13.27
2023-03-31T02:36:12.630Z,13.22
2023-03-31T02:37:12.563Z,13.21
2023-03-31T02:38:12.555Z,13.21
2023-03-31T02:39:12.557Z,13.14
2023-03-31T02:40:12.697Z,13.13
2023-03-31T02:41:12.556Z,13.12
2023-03-31T02:42:12.523Z,13.10
2023-03-31T02:43:12.520Z,13.07
2023-03-31T02:44:12.495Z,13.06
2023-03-31T02:45:12.481Z,13.06
2023-03-31T02:46:12.500Z,13.06
2023-03-31T02:47:12.463Z,13.07
2023-03-31T02:48:12.471Z,13.04
2023-03-31T02:49:12.440Z,13.04
2023-03-31T02:50:12.445Z,13.04
2023-03-31T02:51:12.415Z,13.04
2023-03-31T02:52:12.453Z,13.04
2023-03-31T02:53:12.400Z,13.04
2023-03-31T02:54:12.413Z,13.04
2023-03-31T02:55:12.368Z,13.04
2023-03-31T02:56:12.368Z,13.03
2023-03-31T02:57:12.417Z,13.03
2023-03-31T02:58:12.416Z,13.04
2023-03-31T02:59:12.366Z,13.04
2023-03-31T03:00:12.343Z,13.01
2023-03-31T03:01:12.365Z,13.01
2023-03-31T03:02:12.411Z,12.99
2023-03-31T03:03:12.351Z,12.98
2023-03-31T03:04:12.291Z,12.98
2023-03-31T03:05:12.267Z,12.95
2023-03-31T03:06:12.634Z,12.95
2023-03-31T03:07:12.261Z,12.92
2023-03-31T03:08:12.525Z,12.91
2023-03-31T03:09:12.259Z,12.91
2023-03-31T03:10:12.211Z,12.89
2023-03-31T03:11:12.216Z,12.89
2023-03-31T03:12:12.202Z,12.89
2023-03-31T03:13:12.174Z,12.89
2023-03-31T03:14:12.181Z,12.91
2023-03-31T03:15:12.150Z,12.91
2023-03-31T03:16:12.232Z,12.88
2023-03-31T03:17:12.160Z,12.89
2023-03-31T03:18:12.218Z,12.88
2023-03-31T03:19:12.130Z,12.88
2023-03-31T03:20:12.135Z,12.88
2023-03-31T03:21:12.101Z,12.88
2023-03-31T03:22:12.088Z,12.85
2023-03-31T03:23:12.076Z,12.85
2023-03-31T03:24:12.057Z,12.81
2023-03-31T03:25:12.064Z,12.81
2023-03-31T03:26:12.065Z,12.80
2023-03-31T03:27:12.023Z,12.80
2023-03-31T03:28:12.737Z,12.77
2023-03-31T03:29:12.321Z,12.74
2023-03-31T03:30:12.016Z,12.71
2023-03-31T03:31:12.042Z,12.70
2023-03-31T03:32:12.194Z,12.67
2023-03-31T03:33:12.694Z,12.67
2023-03-31T03:34:11.951Z,12.67
2023-03-31T03:35:11.946Z,12.67
2023-03-31T03:36:12.015Z,12.66
2023-03-31T03:37:11.929Z,12.62
2023-03-31T03:38:11.918Z,12.62
2023-03-31T03:39:12.017Z,12.62
2023-03-31T03:40:11.895Z,12.62
2023-03-31T03:41:11.888Z,12.61
2023-03-31T03:42:11.879Z,12.59
2023-03-31T03:43:11.861Z,12.58
2023-03-31T03:44:11.860Z,12.59
2023-03-31T03:45:11.867Z,12.61
2023-03-31T03:46:11.861Z,12.58
2023-03-31T03:47:11.951Z,12.58
2023-03-31T03:48:11.818Z,12.58
2023-03-31T03:49:11.812Z,12.56
2023-03-31T03:50:13.440Z,12.58
2023-03-31T03:51:11.763Z,12.58
2023-03-31T03:52:11.818Z,12.58
2023-03-31T03:53:11.739Z,12.56
2023-03-31T03:54:11.756Z,12.58
2023-03-31T03:55:11.756Z,12.56
2023-03-31T03:56:11.728Z,12.58
2023-03-31T03:57:11.763Z,12.55
2023-03-31T03:58:11.696Z,12.55
2023-03-31T03:59:11.705Z,12.56
2023-03-31T04:00:11.694Z,12.56
2023-03-31T04:01:11.828Z,12.55
2023-03-31T04:02:11.800Z,12.55
2023-03-31T04:03:11.933Z,12.54
2023-03-31T04:04:11.635Z,12.52
2023-03-31T04:05:11.686Z,12.51
2023-03-31T04:06:11.601Z,12.49
2023-03-31T04:07:11.636Z,12.46
2023-03-31T04:08:11.592Z,12.44
2023-03-31T04:09:11.561Z,12.43
2023-03-31T04:10:11.579Z,12.41
2023-03-31T04:11:11.549Z,12.40
2023-03-31T04:12:11.548Z,12.37
2023-03-31T04:13:11.535Z,12.36
2023-03-31T04:14:11.510Z,12.33
2023-03-31T04:15:11.536Z,12.29
2023-03-31T04:16:11.510Z,12.26
2023-03-31T04:17:11.498Z,12.22
2023-03-31T04:18:12.795Z,12.22
2023-03-31T04:19:11.500Z,12.19
2023-03-31T04:20:11.456Z,12.19
2023-03-31T04:21:11.465Z,12.15
2023-03-31T04:22:11.471Z,12.13
2023-03-31T04:23:11.420Z,12.13
2023-03-31T04:24:11.405Z,12.13
2023-03-31T04:25:11.427Z,12.12
2023-03-31T04:26:11.408Z,12.11
2023-03-31T04:27:11.366Z,12.07
2023-03-31T04:28:11.367Z,12.11
2023-03-31T04:29:11.400Z,12.08
2023-03-31T04:30:11.360Z,12.11
2023-03-31T04:31:11.360Z,12.08
2023-03-31T04:32:11.378Z,12.11
2023-03-31T04:33:11.328Z,12.12
2023-03-31T04:34:11.317Z,12.13
2023-03-31T04:35:11.295Z,12.13
2023-03-31T04:36:11.315Z,12.16
2023-03-31T04:37:11.275Z,12.16
2023-03-31T04:38:11.276Z,12.16
2023-03-31T04:39:11.236Z,12.18
2023-03-31T04:40:11.227Z,12.18
2023-03-31T04:41:11.233Z,12.21
2023-03-31T04:42:11.440Z,12.21
2023-03-31T04:43:11.220Z,12.22
2023-03-31T04:44:11.231Z,12.23
2023-03-31T04:45:11.406Z,12.23
2023-03-31T04:46:11.243Z,12.23
2023-03-31T04:47:11.161Z,12.25
2023-03-31T04:48:11.156Z,12.25
2023-03-31T04:49:11.143Z,12.25
2023-03-31T04:50:14.503Z,12.25
2023-03-31T04:51:12.333Z,12.25
2023-03-31T04:52:11.116Z,12.25
2023-03-31T04:53:11.081Z,12.25
2023-03-31T04:54:11.123Z,12.26
2023-03-31T04:55:11.102Z,12.26
2023-03-31T04:56:11.085Z,12.26
2023-03-31T04:57:11.157Z,12.26
2023-03-31T04:58:11.034Z,12.26
2023-03-31T04:59:11.260Z,12.26
2023-03-31T05:00:11.060Z,12.25
2023-03-31T05:01:11.037Z,12.23
2023-03-31T05:02:11.269Z,12.25
2023-03-31T05:03:11.048Z,12.23
2023-03-31T05:04:10.988Z,12.21
2023-03-31T05:05:10.963Z,12.21
2023-03-31T05:06:10.960Z,12.21
2023-03-31T05:07:10.953Z,12.19
2023-03-31T05:08:10.950Z,12.21
2023-03-31T05:09:11.175Z,12.21
2023-03-31T05:10:10.910Z,12.22
2023-03-31T05:11:10.917Z,12.21
2023-03-31T05:12:10.913Z,12.23
2023-03-31T05:13:10.892Z,12.25
2023-03-31T05:14:10.882Z,12.23
2023-03-31T05:15:10.908Z,12.25
2023-03-31T05:16:10.998Z,12.25
2023-03-31T05:17:10.847Z,12.26
2023-03-31T05:18:10.857Z,12.29
2023-03-31T05:19:10.822Z,12.29
2023-03-31T05:20:10.829Z,12.30
2023-03-31T05:21:10.812Z,12.30
2023-03-31T05:22:10.804Z,12.30
2023-03-31T05:23:10.798Z,12.31
2023-03-31T05:24:10.785Z,12.31
2023-03-31T05:25:10.762Z,12.31
2023-03-31T05:26:10.759Z,12.31
2023-03-31T05:27:10.748Z,12.31
2023-03-31T05:28:10.737Z,12.31
2023-03-31T05:29:10.728Z,12.33
2023-03-31T05:30:10.698Z,12.33
2023-03-31T05:31:10.715Z,12.31
2023-03-31T05:32:10.727Z,12.30
2023-03-31T05:33:10.686Z,12.31
2023-03-31T05:34:10.682Z,12.30
2023-03-31T05:35:10.657Z,12.31
2023-03-31T05:36:11.040Z,12.30
2023-03-31T05:37:10.629Z,12.26
2023-03-31T05:38:10.653Z,12.25
2023-03-31T05:39:10.615Z,12.23
2023-03-31T05:40:10.609Z,12.22
2023-03-31T05:41:10.581Z,12.21
2023-03-31T05:42:10.571Z,12.16
2023-03-31T05:43:10.568Z,12.13
2023-03-31T05:44:10.585Z,12.11
2023-03-31T05:45:10.539Z,12.08
2023-03-31T05:46:10.930Z,12.05
2023-03-31T05:47:10.553Z,12.03
2023-03-31T05:48:10.555Z,12.00
2023-03-31T05:49:10.520Z,12.00
2023-03-31T05:50:12.489Z,11.97
2023-03-31T05:51:10.493Z,11.97
2023-03-31T05:52:10.483Z,11.93
2023-03-31T05:53:10.459Z,11.90
2023-03-31T05:54:10.470Z,11.90
2023-03-31T05:55:10.426Z,11.90
2023-03-31T05:56:10.559Z,11.90
2023-03-31T05:57:10.453Z,11.90
2023-03-31T05:58:10.462Z,11.88
2023-03-31T05:59:10.451Z,11.88
2023-03-31T06:00:10.474Z,11.87
2023-03-31T06:01:10.733Z,11.85
2023-03-31T06:02:10.474Z,11.85
2023-03-31T06:03:10.437Z,11.85
2023-03-31T06:04:11.260Z,11.85
2023-03-31T06:05:11.563Z,11.87
2023-03-31T06:06:10.325Z,11.85
2023-03-31T06:07:10.300Z,11.87
2023-03-31T06:08:10.340Z,11.85
2023-03-31T06:09:10.303Z,11.84
2023-03-31T06:10:10.288Z,11.81
2023-03-31T06:11:10.258Z,11.84
2023-03-31T06:12:10.252Z,11.84
2023-03-31T06:13:10.234Z,11.82
2023-03-31T06:14:10.258Z,11.84
2023-03-31T06:15:10.258Z,11.82
2023-03-31T06:16:10.263Z,11.84
2023-03-31T06:17:10.186Z,11.85
2023-03-31T06:18:10.254Z,11.84
2023-03-31T06:19:10.182Z,11.84
2023-03-31T06:20:20.447Z,11.85
2023-03-31T06:21:11.159Z,11.85
2023-03-31T06:22:10.176Z,11.85
2023-03-31T06:23:10.161Z,11.87
2023-03-31T06:24:10.937Z,11.87
2023-03-31T06:25:10.294Z,11.87
2023-03-31T06:26:11.481Z,11.85
2023-03-31T06:27:18.469Z,11.87
2023-03-31T06:28:10.205Z,11.84
2023-03-31T06:29:10.089Z,11.87
2023-03-31T06:30:10.762Z,11.88
2023-03-31T06:31:10.241Z,11.90
2023-03-31T06:32:10.840Z,11.93
2023-03-31T06:33:10.090Z,11.93
2023-03-31T06:34:11.036Z,11.93
2023-03-31T06:35:10.026Z,11.94
2023-03-31T06:36:10.768Z,11.90
2023-03-31T06:37:10.066Z,11.88
2023-03-31T06:38:10.019Z,11.88
2023-03-31T06:39:09.999Z,11.88
2023-03-31T06:40:09.983Z,11.88
2023-03-31T06:41:09.967Z,11.90
2023-03-31T06:42:09.931Z,11.88
2023-03-31T06:43:09.926Z,11.88
2023-03-31T06:44:09.911Z,11.90
2023-03-31T06:45:09.914Z,11.88
2023-03-31T06:46:10.107Z,11.90
2023-03-31T06:47:09.906Z,11.90
2023-03-31T06:48:09.888Z,11.90
2023-03-31T06:49:09.867Z,11.88
2023-03-31T06:50:09.841Z,11.87
2023-03-31T06:51:09.831Z,11.88
2023-03-31T06:52:09.841Z,11.87
2023-03-31T06:53:09.809Z,11.79
2023-03-31T06:54:09.816Z,11.77
2023-03-31T06:55:09.791Z,11.74
2023-03-31T06:56:09.851Z,11.69
2023-03-31T06:57:09.924Z,11.70
2023-03-31T06:58:09.744Z,11.69
2023-03-31T06:59:09.764Z,11.69
2023-03-31T07:00:09.775Z,11.66
2023-03-31T07:01:09.940Z,11.67
2023-03-31T07:02:09.747Z,11.64
2023-03-31T07:03:09.876Z,11.64
2023-03-31T07:04:09.714Z,11.60
2023-03-31T07:05:09.697Z,11.59
2023-03-31T07:06:09.684Z,11.59
2023-03-31T07:07:10.691Z,11.57
2023-03-31T07:08:09.667Z,11.56
2023-03-31T07:09:10.365Z,11.53
2023-03-31T07:10:09.638Z,11.51
2023-03-31T07:11:11.126Z,11.49
2023-03-31T07:12:09.666Z,11.48
2023-03-31T07:13:10.295Z,11.46
2023-03-31T07:14:09.629Z,11.46
2023-03-31T07:15:09.682Z,11.46
2023-03-31T07:16:09.829Z,11.46
2023-03-31T07:17:10.726Z,11.49
2023-03-31T07:18:09.640Z,11.49
2023-03-31T07:19:10.325Z,11.54
2023-03-31T07:20:09.532Z,11.59
2023-03-31T07:21:10.750Z,11.62
2023-03-31T07:22:09.503Z,11.62
2023-03-31T07:23:10.204Z,11.63
2023-03-31T07:24:09.498Z,11.62
2023-03-31T07:25:10.192Z,11.63
2023-03-31T07:26:09.472Z,11.64
2023-03-31T07:27:10.256Z,11.66
2023-03-31T07:28:09.449Z,11.66
2023-03-31T07:29:09.449Z,11.64
2023-03-31T07:30:09.434Z,11.66
2023-03-31T07:31:10.122Z,11.69
2023-03-31T07:32:09.402Z,11.70
2023-03-31T07:33:10.169Z,11.72
2023-03-31T07:34:09.378Z,11.74
2023-03-31T07:35:09.704Z,11.78
2023-03-31T07:36:13.287Z,11.79
2023-03-31T07:37:10.055Z,11.78
2023-03-31T07:38:09.322Z,11.78
2023-03-31T07:39:09.341Z,11.79
2023-03-31T07:40:09.296Z,11.78
2023-03-31T07:41:10.270Z,11.74
2023-03-31T07:42:09.286Z,11.75
2023-03-31T07:43:09.305Z,11.74
2023-03-31T07:44:09.277Z,11.75
2023-03-31T07:45:10.240Z,11.75
2023-03-31T07:46:09.524Z,11.75
2023-03-31T07:47:09.925Z,11.75
2023-03-31T07:48:09.227Z,11.77
2023-03-31T07:49:09.230Z,11.78
2023-03-31T07:50:09.213Z,11.81
2023-03-31T07:51:09.236Z,11.82
2023-03-31T07:52:09.177Z,11.85
2023-03-31T07:53:10.161Z,11.88
2023-03-31T07:54:10.721Z,11.88
2023-03-31T07:55:09.178Z,11.94
2023-03-31T07:56:09.347Z,11.94
2023-03-31T07:57:09.240Z,11.96
2023-03-31T07:58:09.123Z,11.97
2023-03-31T07:59:09.821Z,11.98
2023-03-31T08:00:09.119Z,12.00
2023-03-31T08:01:09.925Z,12.04
2023-03-31T08:02:09.080Z,12.04
2023-03-31T08:03:09.135Z,12.08
2023-03-31T08:04:11.226Z,12.12
2023-03-31T08:05:09.774Z,12.13
2023-03-31T08:06:09.344Z,12.18
2023-03-31T08:07:09.022Z,12.19
2023-03-31T08:08:08.992Z,12.23
2023-03-31T08:09:08.999Z,12.29
2023-03-31T08:10:09.038Z,12.31
2023-03-31T08:11:09.124Z,12.34
2023-03-31T08:12:08.970Z,12.38
2023-03-31T08:13:08.940Z,12.38
2023-03-31T08:14:08.942Z,12.43
2023-03-31T08:15:08.935Z,12.46
2023-03-31T08:16:09.375Z,12.48
2023-03-31T08:17:08.898Z,12.54
2023-03-31T08:18:08.937Z,12.55
2023-03-31T08:19:08.894Z,12.58
2023-03-31T08:20:08.889Z,12.61
2023-03-31T08:21:09.079Z,12.66
2023-03-31T08:22:09.571Z,12.67
2023-03-31T08:23:08.855Z,12.70
2023-03-31T08:24:09.555Z,12.73
2023-03-31T08:25:08.843Z,12.77
2023-03-31T08:26:09.628Z,12.80
2023-03-31T08:27:12.028Z,12.85
2023-03-31T08:28:09.805Z,12.89
2023-03-31T08:29:08.794Z,12.92
2023-03-31T08:30:08.870Z,12.95
2023-03-31T08:31:08.797Z,12.98
2023-03-31T08:32:09.759Z,12.99
2023-03-31T08:33:08.847Z,13.01
2023-03-31T08:34:09.515Z,13.04
2023-03-31T08:35:08.703Z,13.09
2023-03-31T08:36:09.010Z,13.10
2023-03-31T08:37:08.681Z,13.13
2023-03-31T08:38:09.139Z,13.17
2023-03-31T08:39:08.678Z,13.22
2023-03-31T08:40:08.652Z,13.24
2023-03-31T08:41:08.646Z,13.28
2023-03-31T08:42:11.419Z,13.29
2023-03-31T08:43:08.630Z,13.32
2023-03-31T08:44:08.614Z,13.39
2023-03-31T08:45:08.596Z,13.44
2023-03-31T08:46:08.963Z,13.47
2023-03-31T08:47:08.588Z,13.51
2023-03-31T08:48:08.646Z,13.55
2023-03-31T08:49:08.565Z,13.61
2023-03-31T08:50:08.562Z,13.65
2023-03-31T08:51:08.770Z,13.69
2023-03-31T08:52:08.515Z,13.71
2023-03-31T08:53:08.505Z,13.73
2023-03-31T08:54:08.511Z,13.76
2023-03-31T08:55:08.501Z,13.81
2023-03-31T08:56:08.598Z,13.84
2023-03-31T08:57:08.495Z,13.84
2023-03-31T08:58:08.448Z,13.87
2023-03-31T08:59:08.487Z,13.91
2023-03-31T09:00:08.460Z,13.96
2023-03-31T09:01:08.723Z,13.99
2023-03-31T09:02:08.542Z,14.05
2023-03-31T09:03:08.570Z,14.08
2023-03-31T09:04:11.823Z,14.09
2023-03-31T09:05:08.376Z,14.12
2023-03-31T09:06:08.391Z,14.17
2023-03-31T09:07:08.387Z,14.20
2023-03-31T09:08:08.358Z,14.24
2023-03-31T09:09:08.353Z,14.27
2023-03-31T09:10:08.320Z,14.34
2023-03-31T09:11:08.330Z,14.42
2023-03-31T09:12:08.342Z,14.54
2023-03-31T09:13:08.305Z,14.61
2023-03-31T09:14:08.280Z,14.64
2023-03-31T09:15:08.282Z,14.71
2023-03-31T09:16:08.431Z,14.78
2023-03-31T09:17:08.380Z,14.79
2023-03-31T09:18:08.321Z,14.85
2023-03-31T09:19:08.229Z,14.86
2023-03-31T09:20:08.223Z,14.91
2023-03-31T09:21:08.590Z,14.93
2023-03-31T09:22:08.207Z,14.94
2023-03-31T09:23:08.180Z,14.98
2023-03-31T09:24:08.215Z,15.04
2023-03-31T09:25:08.180Z,15.07
2023-03-31T09:26:08.299Z,15.11
2023-03-31T09:27:08.158Z,15.15
2023-03-31T09:28:08.144Z,15.19
2023-03-31T09:29:08.140Z,15.23
2023-03-31T09:30:08.130Z,15.28
2023-03-31T09:31:08.135Z,15.30
2023-03-31T09:32:08.098Z,15.31
2023-03-31T09:33:08.130Z,15.31
2023-03-31T09:34:08.062Z,15.33
2023-03-31T09:35:08.614Z,15.34
2023-03-31T09:36:08.286Z,15.40
2023-03-31T09:37:08.081Z,15.49
2023-03-31T09:38:08.067Z,15.55
2023-03-31T09:39:09.160Z,15.62
2023-03-31T09:40:08.201Z,15.59
2023-03-31T09:41:08.557Z,15.58
2023-03-31T09:42:07.981Z,15.58
2023-03-31T09:43:08.992Z,15.55
2023-03-31T09:44:07.982Z,15.60
2023-03-31T09:45:08.027Z,15.59
2023-03-31T09:46:10.064Z,15.58
2023-03-31T09:47:11.277Z,15.51
2023-03-31T09:48:07.980Z,15.44
2023-03-31T09:49:08.491Z,15.46
2023-03-31T09:50:07.902Z,15.44
2023-03-31T09:51:08.148Z,15.44
2023-03-31T09:52:07.866Z,15.52
2023-03-31T09:53:07.896Z,15.58
2023-03-31T09:54:07.847Z,15.62
2023-03-31T09:55:07.835Z,15.67
2023-03-31T09:56:08.311Z,15.74
2023-03-31T09:57:07.857Z,15.84
2023-03-31T09:58:07.889Z,15.95
2023-03-31T09:59:07.806Z,16.04
2023-03-31T10:00:07.777Z,16.13
2023-03-31T10:01:07.965Z,16.23
2023-03-31T10:02:07.805Z,16.27
2023-03-31T10:03:08.112Z,16.26
2023-03-31T10:04:07.790Z,16.16
2023-03-31T10:05:07.748Z,16.11
2023-03-31T10:06:07.738Z,16.10
2023-03-31T10:07:07.728Z,16.14
2023-03-31T10:08:07.717Z,16.16
2023-03-31T10:09:07.713Z,16.11
2023-03-31T10:10:07.682Z,16.06
2023-03-31T10:11:07.991Z,16.04
2023-03-31T10:12:07.672Z,16.04
2023-03-31T10:13:07.653Z,15.99
2023-03-31T10:14:07.652Z,15.96
2023-03-31T10:15:07.621Z,15.98
2023-03-31T10:16:07.648Z,16.04
2023-03-31T10:17:07.633Z,16.10
2023-03-31T10:18:07.642Z,16.16
2023-03-31T10:19:07.599Z,16.17
2023-03-31T10:20:07.603Z,16.17
2023-03-31T10:21:07.699Z,16.18
2023-03-31T10:22:07.538Z,16.18
2023-03-31T10:23:07.554Z,16.25
2023-03-31T10:24:07.541Z,16.33
2023-03-31T10:25:07.541Z,16.41
2023-03-31T10:26:07.494Z,16.50
2023-03-31T10:27:07.516Z,16.52
2023-03-31T10:28:07.493Z,16.55
2023-03-31T10:29:07.464Z,16.54
2023-03-31T10:30:07.485Z,16.52
2023-03-31T10:31:07.695Z,16.65
2023-03-31T10:32:07.447Z,16.72
2023-03-31T10:33:19.149Z,16.84
2023-03-31T10:34:08.406Z,16.87
2023-03-31T10:35:07.425Z,16.90
2023-03-31T10:36:07.469Z,16.98
2023-03-31T10:37:07.395Z,17.06
2023-03-31T10:38:07.397Z,17.12
2023-03-31T10:39:07.352Z,17.22
2023-03-31T10:40:07.352Z,17.22
2023-03-31T10:41:07.625Z,17.07
2023-03-31T10:42:07.325Z,17.00
2023-03-31T10:43:07.343Z,16.95
2023-03-31T10:44:07.328Z,16.91
2023-03-31T10:45:07.304Z,16.98
2023-03-31T10:46:07.285Z,16.92
2023-03-31T10:47:07.371Z,16.96
2023-03-31T10:48:07.323Z,16.98
2023-03-31T10:49:07.274Z,17.02
2023-03-31T10:50:07.355Z,17.02
2023-03-31T10:51:07.554Z,17.00
2023-03-31T10:52:07.268Z,17.00
2023-03-31T10:53:07.234Z,16.96
2023-03-31T10:54:08.348Z,16.91
2023-03-31T10:55:07.196Z,16.90
2023-03-31T10:56:08.231Z,16.90
2023-03-31T10:57:07.215Z,16.90
2023-03-31T10:58:07.354Z,16.96
2023-03-31T10:59:07.190Z,16.96
2023-03-31T11:00:07.320Z,16.99
2023-03-31T11:01:07.305Z,17.05
2023-03-31T11:02:07.631Z,17.06
2023-03-31T11:03:07.156Z,17.03
2023-03-31T11:04:07.180Z,17.00
2023-03-31T11:05:07.134Z,16.99
2023-03-31T11:06:07.791Z,17.02
2023-03-31T11:07:07.072Z,17.03
2023-03-31T11:08:07.251Z,17.00
2023-03-31T11:09:07.168Z,17.02
2023-03-31T11:10:07.057Z,16.98
2023-03-31T11:11:07.342Z,16.95
2023-03-31T11:12:07.014Z,16.88
2023-03-31T11:13:06.981Z,16.88
2023-03-31T11:14:06.988Z,16.87
2023-03-31T11:15:06.984Z,16.78
2023-03-31T11:16:07.122Z,16.67
2023-03-31T11:17:07.014Z,16.60
2023-03-31T11:18:06.991Z,16.59
2023-03-31T11:19:06.912Z,16.51
2023-03-31T11:20:06.943Z,16.30
2023-03-31T11:21:07.077Z,15.74
2023-03-31T11:22:06.882Z,15.05
2023-03-31T11:23:06.884Z,14.23
2023-03-31T11:24:06.886Z,13.35
2023-03-31T11:25:06.864Z,12.62
2023-03-31T11:26:06.880Z,12.11
2023-03-31T11:27:06.846Z,11.54
2023-03-31T11:28:06.824Z,11.16
2023-03-31T11:29:06.834Z,10.87
2023-03-31T11:30:06.808Z,10.54
2023-03-31T11:31:07.076Z,10.34
2023-03-31T11:32:06.842Z,10.18
2023-03-31T11:33:06.859Z,10.11
2023-03-31T11:34:06.770Z,10.09
2023-03-31T11:35:06.739Z,10.07
2023-03-31T11:36:06.780Z,10.09
2023-03-31T11:37:06.736Z,10.09
2023-03-31T11:38:06.740Z,10.07
2023-03-31T11:39:06.777Z,10.09
2023-03-31T11:40:06.703Z,10.10
2023-03-31T11:41:06.985Z,10.07
2023-03-31T11:42:06.718Z,10.06
2023-03-31T11:43:06.686Z,10.09
2023-03-31T11:44:06.668Z,10.11
2023-03-31T11:45:06.638Z,10.14
2023-03-31T11:46:06.931Z,10.16
2023-03-31T11:47:06.656Z,10.13
2023-03-31T11:48:07.879Z,10.10
2023-03-31T11:49:06.680Z,10.10
2023-03-31T11:50:06.589Z,10.14
2023-03-31T11:51:06.587Z,10.14
2023-03-31T11:52:06.602Z,10.17
2023-03-31T11:53:06.561Z,10.24
2023-03-31T11:54:06.574Z,10.28
2023-03-31T11:55:06.565Z,10.28
2023-03-31T11:56:06.700Z,10.35
2023-03-31T11:57:06.601Z,10.42
2023-03-31T11:58:06.553Z,10.42
2023-03-31T11:59:06.478Z,10.44
2023-03-31T12:00:06.492Z,10.46
2023-03-31T12:01:06.529Z,10.44
2023-03-31T12:02:06.471Z,10.46
2023-03-31T12:03:06.652Z,10.51
2023-03-31T12:04:06.537Z,10.57
2023-03-31T12:05:07.662Z,10.66
2023-03-31T12:06:06.802Z,10.75
2023-03-31T12:07:07.162Z,10.80
2023-03-31T12:08:06.438Z,10.86
2023-03-31T12:09:07.582Z,10.90
2023-03-31T12:10:06.520Z,11.05
2023-03-31T12:11:06.557Z,11.13
2023-03-31T12:12:06.360Z,11.28
2023-03-31T12:13:06.364Z,11.46
2023-03-31T12:14:06.404Z,11.60
2023-03-31T12:15:06.324Z,11.77
2023-03-31T12:16:06.647Z,11.82
2023-03-31T12:17:06.323Z,12.03
2023-03-31T12:18:06.463Z,12.23
2023-03-31T12:19:06.272Z,12.49
2023-03-31T12:20:06.325Z,12.77
2023-03-31T12:21:06.243Z,12.96
2023-03-31T12:22:06.255Z,12.99
2023-03-31T12:23:06.227Z,13.07
2023-03-31T12:24:08.286Z,13.27
2023-03-31T12:25:06.250Z,13.47
2023-03-31T12:26:06.397Z,13.63
2023-03-31T12:27:06.198Z,14.01
2023-03-31T12:28:06.210Z,14.21
2023-03-31T12:29:06.189Z,14.41
2023-03-31T12:30:06.267Z,14.21
2023-03-31T12:31:06.198Z,14.08
2023-03-31T12:32:06.163Z,14.34
2023-03-31T12:33:06.182Z,14.57
2023-03-31T12:34:06.131Z,15.31
2023-03-31T12:35:06.129Z,16.07
2023-03-31T12:36:06.298Z,16.73
2023-03-31T12:37:06.111Z,17.17
2023-03-31T12:38:06.075Z,17.51
2023-03-31T12:39:06.078Z,17.83
2023-03-31T12:40:06.082Z,18.29
2023-03-31T12:41:06.030Z,18.59
2023-03-31T12:42:06.087Z,18.74
2023-03-31T12:43:06.014Z,18.99
2023-03-31T12:44:06.018Z,18.89
2023-03-31T12:45:06.030Z,18.94
2023-03-31T12:46:06.168Z,18.82
2023-03-31T12:47:06.050Z,18.79
2023-03-31T12:48:06.054Z,18.97
2023-03-31T12:49:06.098Z,18.84
2023-03-31T12:50:05.937Z,19.17
2023-03-31T12:51:06.160Z,18.84
2023-03-31T12:52:05.931Z,18.62